sensor_id;sensor_type;location;lat;lon;timestamp;P1;durP1;ratioP1;P2;durP2;ratioP2
39344;SDS011;25061;51.954;6.996;2022-12-29T00:02:07;5.22;;;0.90;;
39344;SDS011;25061;51.954;6.996;2022-12-29T00:04:33;2.55;;;0.90;;
39344;SDS011;25061;51.954;6.996;2022-12-29T00:06:59;1.30;;;0.77;;
39344;SDS011;25061;51.954;6.996;2022-12-29T00:09:25;1.73;;;0.95;;
39344;SDS011;25061;51.954;6.996;2022-12-29T00:11:51;1.50;;;0.80;;
39344;SDS011;25061;51.954;6.996;2022-12-29T00:14:16;2.83;;;1.00;;
39344;SDS011;25061;51.954;6.996;2022-12-29T00:17:01;2.60;;;0.90;;
39344;SDS011;25061;51.954;6.996;2022-12-29T00:19:27;2.88;;;0.93;;
39344;SDS011;25061;51.954;6.996;2022-12-29T00:22:11;0.88;;;0.63;;
39344;SDS011;25061;51.954;6.996;2022-12-29T00:24:57;1.45;;;0.80;;
39344;SDS011;25061;51.954;6.996;2022-12-29T00:27:41;2.70;;;0.95;;
39344;SDS011;25061;51.954;6.996;2022-12-29T00:30:25;4.35;;;1.13;;
39344;SDS011;25061;51.954;6.996;2022-12-29T00:33:16;2.13;;;0.90;;
39344;SDS011;25061;51.954;6.996;2022-12-29T00:36:04;2.05;;;0.90;;
39344;SDS011;25061;51.954;6.996;2022-12-29T00:38:53;2.70;;;0.90;;
39344;SDS011;25061;51.954;6.996;2022-12-29T00:41:41;1.75;;;0.82;;
39344;SDS011;25061;51.954;6.996;2022-12-29T00:44:25;2.30;;;0.70;;
39344;SDS011;25061;51.954;6.996;2022-12-29T00:46:51;1.83;;;0.80;;
39344;SDS011;25061;51.954;6.996;2022-12-29T00:49:16;1.83;;;0.85;;
39344;SDS011;25061;51.954;6.996;2022-12-29T00:52:10;2.05;;;0.70;;
39344;SDS011;25061;51.954;6.996;2022-12-29T00:54:37;2.13;;;0.90;;
39344;SDS011;25061;51.954;6.996;2022-12-29T00:57:05;1.55;;;0.75;;
39344;SDS011;25061;51.954;6.996;2022-12-29T00:59:36;2.22;;;0.80;;
39344;SDS011;25061;51.954;6.996;2022-12-29T01:02:02;1.98;;;0.70;;
39344;SDS011;25061;51.954;6.996;2022-12-29T01:04:28;0.93;;;0.50;;
39344;SDS011;25061;51.954;6.996;2022-12-29T01:06:53;1.30;;;0.70;;
39344;SDS011;25061;51.954;6.996;2022-12-29T01:09:19;1.30;;;0.73;;
39344;SDS011;25061;51.954;6.996;2022-12-29T01:12:04;1.05;;;0.63;;
39344;SDS011;25061;51.954;6.996;2022-12-29T01:14:31;1.70;;;0.90;;
39344;SDS011;25061;51.954;6.996;2022-12-29T01:16:56;2.70;;;0.90;;
39344;SDS011;25061;51.954;6.996;2022-12-29T01:19:22;1.45;;;0.82;;
39344;SDS011;25061;51.954;6.996;2022-12-29T01:21:48;2.25;;;1.00;;
39344;SDS011;25061;51.954;6.996;2022-12-29T01:24:14;1.27;;;0.80;;
39344;SDS011;25061;51.954;6.996;2022-12-29T01:26:41;2.17;;;1.00;;
39344;SDS011;25061;51.954;6.996;2022-12-29T01:29:07;1.60;;;0.80;;
39344;SDS011;25061;51.954;6.996;2022-12-29T01:31:33;2.25;;;1.17;;
39344;SDS011;25061;51.954;6.996;2022-12-29T01:33:59;1.80;;;0.85;;
39344;SDS011;25061;51.954;6.996;2022-12-29T01:36:24;2.15;;;0.80;;
39344;SDS011;25061;51.954;6.996;2022-12-29T01:38:50;1.50;;;0.70;;
39344;SDS011;25061;51.954;6.996;2022-12-29T01:41:16;2.08;;;0.82;;
39344;SDS011;25061;51.954;6.996;2022-12-29T01:48:53;3.08;;;0.90;;
39344;SDS011;25061;51.954;6.996;2022-12-29T01:51:38;2.00;;;0.82;;
39344;SDS011;25061;51.954;6.996;2022-12-29T01:54:08;2.13;;;0.88;;
39344;SDS011;25061;51.954;6.996;2022-12-29T01:56:38;1.10;;;0.73;;
39344;SDS011;25061;51.954;6.996;2022-12-29T01:59:06;1.55;;;0.73;;
39344;SDS011;25061;51.954;6.996;2022-12-29T02:01:38;2.67;;;0.70;;
39344;SDS011;25061;51.954;6.996;2022-12-29T02:04:03;2.15;;;0.80;;
39344;SDS011;25061;51.954;6.996;2022-12-29T02:06:31;1.70;;;0.90;;
39344;SDS011;25061;51.954;6.996;2022-12-29T02:09:02;1.98;;;0.80;;
39344;SDS011;25061;51.954;6.996;2022-12-29T02:11:27;1.27;;;0.77;;
39344;SDS011;25061;51.954;6.996;2022-12-29T02:13:54;1.33;;;0.80;;
39344;SDS011;25061;51.954;6.996;2022-12-29T02:21:56;1.30;;;0.70;;
39344;SDS011;25061;51.954;6.996;2022-12-29T02:24:37;1.42;;;0.70;;
39344;SDS011;25061;51.954;6.996;2022-12-29T02:27:43;1.08;;;0.50;;
39344;SDS011;25061;51.954;6.996;2022-12-29T02:33:17;0.95;;;0.50;;
39344;SDS011;25061;51.954;6.996;2022-12-29T02:36:07;2.92;;;0.60;;
39344;SDS011;25061;51.954;6.996;2022-12-29T02:41:30;1.27;;;0.50;;
39344;SDS011;25061;51.954;6.996;2022-12-29T02:46:53;1.00;;;0.50;;
39344;SDS011;25061;51.954;6.996;2022-12-29T02:49:36;2.15;;;0.70;;
39344;SDS011;25061;51.954;6.996;2022-12-29T02:52:28;2.60;;;0.50;;
39344;SDS011;25061;51.954;6.996;2022-12-29T02:55:01;1.90;;;0.60;;
39344;SDS011;25061;51.954;6.996;2022-12-29T02:57:28;1.67;;;0.60;;
39344;SDS011;25061;51.954;6.996;2022-12-29T03:00:04;0.98;;;0.50;;
39344;SDS011;25061;51.954;6.996;2022-12-29T03:08:59;1.80;;;0.50;;
39344;SDS011;25061;51.954;6.996;2022-12-29T03:11:52;1.58;;;0.93;;
39344;SDS011;25061;51.954;6.996;2022-12-29T03:17:51;3.17;;;0.90;;
39344;SDS011;25061;51.954;6.996;2022-12-29T03:20:26;0.80;;;0.50;;
39344;SDS011;25061;51.954;6.996;2022-12-29T03:23:03;4.03;;;0.93;;
39344;SDS011;25061;51.954;6.996;2022-12-29T03:28:31;1.40;;;0.52;;
39344;SDS011;25061;51.954;6.996;2022-12-29T03:31:02;3.40;;;0.52;;
39344;SDS011;25061;51.954;6.996;2022-12-29T03:33:30;2.53;;;0.63;;
39344;SDS011;25061;51.954;6.996;2022-12-29T03:35:59;3.10;;;0.70;;
39344;SDS011;25061;51.954;6.996;2022-12-29T03:41:13;3.92;;;0.60;;
39344;SDS011;25061;51.954;6.996;2022-12-29T03:43:41;1.48;;;0.70;;
39344;SDS011;25061;51.954;6.996;2022-12-29T03:46:07;1.77;;;0.70;;
39344;SDS011;25061;51.954;6.996;2022-12-29T03:48:33;1.55;;;0.70;;
39344;SDS011;25061;51.954;6.996;2022-12-29T03:50:58;2.40;;;0.73;;
39344;SDS011;25061;51.954;6.996;2022-12-29T03:53:24;1.48;;;0.60;;
39344;SDS011;25061;51.954;6.996;2022-12-29T03:55:49;3.78;;;1.23;;
39344;SDS011;25061;51.954;6.996;2022-12-29T03:58:15;2.95;;;0.90;;
39344;SDS011;25061;51.954;6.996;2022-12-29T04:00:41;5.15;;;1.00;;
39344;SDS011;25061;51.954;6.996;2022-12-29T04:03:06;3.53;;;0.80;;
39344;SDS011;25061;51.954;6.996;2022-12-29T04:05:32;1.55;;;0.68;;
39344;SDS011;25061;51.954;6.996;2022-12-29T04:07:57;3.78;;;0.75;;
39344;SDS011;25061;51.954;6.996;2022-12-29T04:10:23;3.47;;;0.65;;
39344;SDS011;25061;51.954;6.996;2022-12-29T04:12:51;5.50;;;1.08;;
39344;SDS011;25061;51.954;6.996;2022-12-29T04:15:16;1.83;;;0.90;;
39344;SDS011;25061;51.954;6.996;2022-12-29T04:17:42;1.80;;;0.63;;
39344;SDS011;25061;51.954;6.996;2022-12-29T04:20:07;2.33;;;0.80;;
39344;SDS011;25061;51.954;6.996;2022-12-29T04:23:01;3.88;;;0.77;;
39344;SDS011;25061;51.954;6.996;2022-12-29T04:25:31;3.60;;;0.73;;
39344;SDS011;25061;51.954;6.996;2022-12-29T04:27:57;1.08;;;0.50;;
39344;SDS011;25061;51.954;6.996;2022-12-29T04:30:23;1.70;;;0.60;;
39344;SDS011;25061;51.954;6.996;2022-12-29T04:32:49;2.42;;;0.52;;
39344;SDS011;25061;51.954;6.996;2022-12-29T04:35:14;1.48;;;0.50;;
39344;SDS011;25061;51.954;6.996;2022-12-29T04:37:40;2.13;;;0.55;;
39344;SDS011;25061;51.954;6.996;2022-12-29T04:40:06;4.07;;;0.80;;
39344;SDS011;25061;51.954;6.996;2022-12-29T04:42:32;5.30;;;0.82;;
39344;SDS011;25061;51.954;6.996;2022-12-29T04:44:58;1.67;;;0.47;;
39344;SDS011;25061;51.954;6.996;2022-12-29T04:47:23;1.88;;;0.50;;
39344;SDS011;25061;51.954;6.996;2022-12-29T04:49:49;1.30;;;0.50;;
39344;SDS011;25061;51.954;6.996;2022-12-29T04:52:14;2.03;;;0.50;;
39344;SDS011;25061;51.954;6.996;2022-12-29T04:54:40;2.22;;;0.50;;
39344;SDS011;25061;51.954;6.996;2022-12-29T04:57:05;1.40;;;0.40;;
39344;SDS011;25061;51.954;6.996;2022-12-29T04:59:31;1.08;;;0.40;;
39344;SDS011;25061;51.954;6.996;2022-12-29T05:01:56;1.77;;;0.43;;
39344;SDS011;25061;51.954;6.996;2022-12-29T05:04:22;1.25;;;0.40;;
39344;SDS011;25061;51.954;6.996;2022-12-29T05:06:47;1.90;;;0.40;;
39344;SDS011;25061;51.954;6.996;2022-12-29T05:09:13;2.00;;;0.40;;
39344;SDS011;25061;51.954;6.996;2022-12-29T05:11:38;1.70;;;0.40;;
39344;SDS011;25061;51.954;6.996;2022-12-29T05:14:04;2.30;;;0.40;;
39344;SDS011;25061;51.954;6.996;2022-12-29T05:16:29;1.15;;;0.40;;
39344;SDS011;25061;51.954;6.996;2022-12-29T05:18:55;0.30;;;0.30;;
39344;SDS011;25061;51.954;6.996;2022-12-29T05:21:20;3.38;;;1.13;;
39344;SDS011;25061;51.954;6.996;2022-12-29T05:23:46;1.60;;;0.40;;
39344;SDS011;25061;51.954;6.996;2022-12-29T05:26:12;1.40;;;0.50;;
39344;SDS011;25061;51.954;6.996;2022-12-29T05:28:37;1.67;;;0.40;;
39344;SDS011;25061;51.954;6.996;2022-12-29T05:31:03;2.70;;;0.43;;
39344;SDS011;25061;51.954;6.996;2022-12-29T05:33:28;1.63;;;0.45;;
39344;SDS011;25061;51.954;6.996;2022-12-29T05:35:54;1.48;;;0.30;;
39344;SDS011;25061;51.954;6.996;2022-12-29T05:38:19;2.28;;;0.47;;
39344;SDS011;25061;51.954;6.996;2022-12-29T05:40:45;1.23;;;0.40;;
39344;SDS011;25061;51.954;6.996;2022-12-29T05:43:10;2.00;;;0.40;;
39344;SDS011;25061;51.954;6.996;2022-12-29T05:45:36;2.75;;;0.52;;
39344;SDS011;25061;51.954;6.996;2022-12-29T05:48:02;4.25;;;1.10;;
39344;SDS011;25061;51.954;6.996;2022-12-29T05:50:28;2.35;;;0.47;;
39344;SDS011;25061;51.954;6.996;2022-12-29T05:52:53;3.03;;;0.50;;
39344;SDS011;25061;51.954;6.996;2022-12-29T05:55:19;2.80;;;0.77;;
39344;SDS011;25061;51.954;6.996;2022-12-29T05:57:44;3.60;;;0.50;;
39344;SDS011;25061;51.954;6.996;2022-12-29T06:00:10;4.93;;;0.70;;
39344;SDS011;25061;51.954;6.996;2022-12-29T06:02:36;4.18;;;0.82;;
39344;SDS011;25061;51.954;6.996;2022-12-29T06:05:02;3.70;;;0.80;;
39344;SDS011;25061;51.954;6.996;2022-12-29T06:07:27;2.17;;;0.43;;
39344;SDS011;25061;51.954;6.996;2022-12-29T06:09:53;1.85;;;0.50;;
39344;SDS011;25061;51.954;6.996;2022-12-29T06:12:18;3.85;;;0.50;;
39344;SDS011;25061;51.954;6.996;2022-12-29T06:14:44;3.30;;;0.50;;
39344;SDS011;25061;51.954;6.996;2022-12-29T06:17:10;4.63;;;0.60;;
39344;SDS011;25061;51.954;6.996;2022-12-29T06:19:35;3.05;;;0.40;;
39344;SDS011;25061;51.954;6.996;2022-12-29T06:22:01;4.00;;;0.70;;
39344;SDS011;25061;51.954;6.996;2022-12-29T06:24:26;7.20;;;1.20;;
39344;SDS011;25061;51.954;6.996;2022-12-29T06:26:52;3.95;;;0.60;;
39344;SDS011;25061;51.954;6.996;2022-12-29T06:29:18;1.85;;;0.40;;
39344;SDS011;25061;51.954;6.996;2022-12-29T06:31:45;2.03;;;0.55;;
39344;SDS011;25061;51.954;6.996;2022-12-29T06:34:11;3.92;;;1.00;;
39344;SDS011;25061;51.954;6.996;2022-12-29T06:36:37;3.67;;;1.00;;
39344;SDS011;25061;51.954;6.996;2022-12-29T06:39:03;3.55;;;0.70;;
39344;SDS011;25061;51.954;6.996;2022-12-29T06:41:29;5.50;;;1.02;;
39344;SDS011;25061;51.954;6.996;2022-12-29T06:43:55;5.38;;;1.10;;
39344;SDS011;25061;51.954;6.996;2022-12-29T06:46:20;3.35;;;0.80;;
39344;SDS011;25061;51.954;6.996;2022-12-29T06:48:46;3.72;;;0.80;;
39344;SDS011;25061;51.954;6.996;2022-12-29T06:51:11;3.38;;;0.70;;
39344;SDS011;25061;51.954;6.996;2022-12-29T06:53:37;4.35;;;0.80;;
39344;SDS011;25061;51.954;6.996;2022-12-29T06:56:03;4.55;;;1.23;;
39344;SDS011;25061;51.954;6.996;2022-12-29T06:58:28;5.15;;;0.95;;
39344;SDS011;25061;51.954;6.996;2022-12-29T07:00:54;3.10;;;0.50;;
39344;SDS011;25061;51.954;6.996;2022-12-29T07:03:19;4.05;;;0.73;;
39344;SDS011;25061;51.954;6.996;2022-12-29T07:05:45;2.28;;;0.63;;
39344;SDS011;25061;51.954;6.996;2022-12-29T07:08:11;2.92;;;0.70;;
39344;SDS011;25061;51.954;6.996;2022-12-29T07:10:36;3.92;;;0.82;;
39344;SDS011;25061;51.954;6.996;2022-12-29T07:13:02;3.15;;;0.70;;
39344;SDS011;25061;51.954;6.996;2022-12-29T07:15:27;3.78;;;0.88;;
39344;SDS011;25061;51.954;6.996;2022-12-29T07:17:53;3.80;;;0.70;;
39344;SDS011;25061;51.954;6.996;2022-12-29T07:20:18;3.85;;;0.70;;
39344;SDS011;25061;51.954;6.996;2022-12-29T07:22:44;4.90;;;0.65;;
39344;SDS011;25061;51.954;6.996;2022-12-29T07:25:10;2.95;;;0.80;;
39344;SDS011;25061;51.954;6.996;2022-12-29T07:27:35;2.30;;;0.60;;
39344;SDS011;25061;51.954;6.996;2022-12-29T07:30:01;3.40;;;0.70;;
39344;SDS011;25061;51.954;6.996;2022-12-29T07:32:26;4.50;;;1.63;;
39344;SDS011;25061;51.954;6.996;2022-12-29T07:34:52;4.00;;;0.52;;
39344;SDS011;25061;51.954;6.996;2022-12-29T07:37:17;4.35;;;0.80;;
39344;SDS011;25061;51.954;6.996;2022-12-29T07:39:43;6.60;;;1.33;;
39344;SDS011;25061;51.954;6.996;2022-12-29T07:42:09;9.50;;;1.50;;
39344;SDS011;25061;51.954;6.996;2022-12-29T07:44:34;4.90;;;0.80;;
39344;SDS011;25061;51.954;6.996;2022-12-29T07:47:01;3.95;;;0.80;;
39344;SDS011;25061;51.954;6.996;2022-12-29T07:49:27;3.80;;;0.88;;
39344;SDS011;25061;51.954;6.996;2022-12-29T07:51:52;4.45;;;0.80;;
39344;SDS011;25061;51.954;6.996;2022-12-29T07:54:18;8.57;;;1.55;;
39344;SDS011;25061;51.954;6.996;2022-12-29T07:56:44;5.90;;;1.30;;
39344;SDS011;25061;51.954;6.996;2022-12-29T07:59:10;4.32;;;1.40;;
39344;SDS011;25061;51.954;6.996;2022-12-29T08:01:37;14.52;;;1.00;;
39344;SDS011;25061;51.954;6.996;2022-12-29T08:04:02;6.47;;;1.35;;
39344;SDS011;25061;51.954;6.996;2022-12-29T08:06:28;5.03;;;0.93;;
39344;SDS011;25061;51.954;6.996;2022-12-29T08:08:57;5.78;;;0.70;;
39344;SDS011;25061;51.954;6.996;2022-12-29T08:11:23;3.63;;;0.80;;
39344;SDS011;25061;51.954;6.996;2022-12-29T08:13:48;5.75;;;1.23;;
39344;SDS011;25061;51.954;6.996;2022-12-29T08:16:14;4.32;;;1.00;;
39344;SDS011;25061;51.954;6.996;2022-12-29T08:18:40;7.18;;;1.00;;
39344;SDS011;25061;51.954;6.996;2022-12-29T08:21:05;3.72;;;0.80;;
39344;SDS011;25061;51.954;6.996;2022-12-29T08:23:31;6.10;;;0.93;;
39344;SDS011;25061;51.954;6.996;2022-12-29T08:26:00;4.85;;;0.90;;
39344;SDS011;25061;51.954;6.996;2022-12-29T08:28:30;3.53;;;0.60;;
39344;SDS011;25061;51.954;6.996;2022-12-29T08:30:57;4.95;;;0.80;;
39344;SDS011;25061;51.954;6.996;2022-12-29T08:33:23;7.13;;;0.90;;
39344;SDS011;25061;51.954;6.996;2022-12-29T08:35:50;7.20;;;0.90;;
39344;SDS011;25061;51.954;6.996;2022-12-29T08:38:15;4.28;;;0.88;;
39344;SDS011;25061;51.954;6.996;2022-12-29T08:40:42;4.97;;;0.93;;
39344;SDS011;25061;51.954;6.996;2022-12-29T08:43:09;5.70;;;1.05;;
39344;SDS011;25061;51.954;6.996;2022-12-29T08:45:34;6.70;;;1.35;;
39344;SDS011;25061;51.954;6.996;2022-12-29T08:48:00;8.90;;;0.90;;
39344;SDS011;25061;51.954;6.996;2022-12-29T08:50:26;5.13;;;1.50;;
39344;SDS011;25061;51.954;6.996;2022-12-29T08:52:51;7.07;;;1.13;;
39344;SDS011;25061;51.954;6.996;2022-12-29T08:55:17;6.65;;;1.13;;
39344;SDS011;25061;51.954;6.996;2022-12-29T08:57:42;6.13;;;1.00;;
39344;SDS011;25061;51.954;6.996;2022-12-29T09:00:08;7.18;;;1.50;;
39344;SDS011;25061;51.954;6.996;2022-12-29T09:02:34;7.10;;;0.85;;
39344;SDS011;25061;51.954;6.996;2022-12-29T09:05:00;8.48;;;1.10;;
39344;SDS011;25061;51.954;6.996;2022-12-29T09:07:25;5.88;;;0.90;;
39344;SDS011;25061;51.954;6.996;2022-12-29T09:09:51;9.07;;;0.95;;
39344;SDS011;25061;51.954;6.996;2022-12-29T09:12:17;5.60;;;1.27;;
39344;SDS011;25061;51.954;6.996;2022-12-29T09:14:43;6.60;;;1.20;;
39344;SDS011;25061;51.954;6.996;2022-12-29T09:17:10;7.30;;;1.33;;
39344;SDS011;25061;51.954;6.996;2022-12-29T09:19:54;8.05;;;1.65;;
39344;SDS011;25061;51.954;6.996;2022-12-29T09:22:20;5.20;;;0.82;;
39344;SDS011;25061;51.954;6.996;2022-12-29T09:24:45;6.55;;;1.30;;
39344;SDS011;25061;51.954;6.996;2022-12-29T09:27:11;5.47;;;1.27;;
39344;SDS011;25061;51.954;6.996;2022-12-29T09:29:37;7.60;;;1.05;;
39344;SDS011;25061;51.954;6.996;2022-12-29T09:32:02;7.97;;;1.10;;
39344;SDS011;25061;51.954;6.996;2022-12-29T09:34:28;9.07;;;1.33;;
39344;SDS011;25061;51.954;6.996;2022-12-29T09:36:53;5.72;;;1.25;;
39344;SDS011;25061;51.954;6.996;2022-12-29T09:39:21;6.93;;;1.23;;
39344;SDS011;25061;51.954;6.996;2022-12-29T09:44:38;5.05;;;0.80;;
39344;SDS011;25061;51.954;6.996;2022-12-29T09:47:08;5.28;;;1.02;;
39344;SDS011;25061;51.954;6.996;2022-12-29T09:52:35;6.88;;;1.10;;
39344;SDS011;25061;51.954;6.996;2022-12-29T09:55:10;10.07;;;1.50;;
39344;SDS011;25061;51.954;6.996;2022-12-29T09:58:00;5.97;;;1.17;;
39344;SDS011;25061;51.954;6.996;2022-12-29T10:00:32;6.45;;;0.90;;
39344;SDS011;25061;51.954;6.996;2022-12-29T10:03:12;5.32;;;1.02;;
39344;SDS011;25061;51.954;6.996;2022-12-29T10:05:45;4.47;;;0.93;;
39344;SDS011;25061;51.954;6.996;2022-12-29T10:08:18;4.43;;;0.90;;
39344;SDS011;25061;51.954;6.996;2022-12-29T10:10:50;11.38;;;0.88;;
39344;SDS011;25061;51.954;6.996;2022-12-29T10:16:16;8.55;;;1.58;;
39344;SDS011;25061;51.954;6.996;2022-12-29T10:18:50;8.35;;;1.75;;
39344;SDS011;25061;51.954;6.996;2022-12-29T10:24:18;5.25;;;1.10;;
39344;SDS011;25061;51.954;6.996;2022-12-29T10:26:46;6.60;;;0.93;;
39344;SDS011;25061;51.954;6.996;2022-12-29T10:31:58;4.00;;;0.90;;
39344;SDS011;25061;51.954;6.996;2022-12-29T10:34:51;5.70;;;1.25;;
39344;SDS011;25061;51.954;6.996;2022-12-29T10:37:37;6.70;;;1.33;;
39344;SDS011;25061;51.954;6.996;2022-12-29T10:40:12;7.25;;;1.02;;
39344;SDS011;25061;51.954;6.996;2022-12-29T10:42:45;6.80;;;1.10;;
39344;SDS011;25061;51.954;6.996;2022-12-29T10:45:15;6.82;;;0.80;;
39344;SDS011;25061;51.954;6.996;2022-12-29T10:48:25;7.65;;;0.90;;
39344;SDS011;25061;51.954;6.996;2022-12-29T10:53:07;6.53;;;1.40;;
39344;SDS011;25061;51.954;6.996;2022-12-29T10:55:42;6.88;;;1.23;;
39344;SDS011;25061;51.954;6.996;2022-12-29T10:58:10;10.07;;;1.40;;
39344;SDS011;25061;51.954;6.996;2022-12-29T11:00:38;6.68;;;1.23;;
39344;SDS011;25061;51.954;6.996;2022-12-29T11:06:11;11.18;;;1.40;;
39344;SDS011;25061;51.954;6.996;2022-12-29T11:08:52;8.75;;;1.55;;
39344;SDS011;25061;51.954;6.996;2022-12-29T11:11:24;7.40;;;1.80;;
39344;SDS011;25061;51.954;6.996;2022-12-29T11:14:25;7.30;;;1.63;;
39344;SDS011;25061;51.954;6.996;2022-12-29T11:16:58;8.95;;;1.70;;
39344;SDS011;25061;51.954;6.996;2022-12-29T11:19:31;6.28;;;1.30;;
39344;SDS011;25061;51.954;6.996;2022-12-29T11:22:12;5.93;;;1.25;;
39344;SDS011;25061;51.954;6.996;2022-12-29T11:24:45;8.75;;;1.42;;
39344;SDS011;25061;51.954;6.996;2022-12-29T11:27:19;7.63;;;1.23;;
39344;SDS011;25061;51.954;6.996;2022-12-29T11:29:48;8.70;;;2.67;;
39344;SDS011;25061;51.954;6.996;2022-12-29T11:34:51;5.80;;;1.25;;
39344;SDS011;25061;51.954;6.996;2022-12-29T11:37:26;6.25;;;1.40;;
39344;SDS011;25061;51.954;6.996;2022-12-29T11:39:58;6.07;;;1.25;;
39344;SDS011;25061;51.954;6.996;2022-12-29T11:42:51;8.25;;;2.17;;
39344;SDS011;25061;51.954;6.996;2022-12-29T11:45:28;9.10;;;1.70;;
39344;SDS011;25061;51.954;6.996;2022-12-29T11:48:07;10.55;;;1.80;;
39344;SDS011;25061;51.954;6.996;2022-12-29T11:50:42;9.18;;;1.60;;
39344;SDS011;25061;51.954;6.996;2022-12-29T11:56:08;8.82;;;1.60;;
39344;SDS011;25061;51.954;6.996;2022-12-29T11:58:43;8.48;;;1.60;;
39344;SDS011;25061;51.954;6.996;2022-12-29T12:06:25;9.30;;;2.10;;
39344;SDS011;25061;51.954;6.996;2022-12-29T12:09:14;9.60;;;1.60;;
39344;SDS011;25061;51.954;6.996;2022-12-29T12:11:47;10.02;;;1.67;;
39344;SDS011;25061;51.954;6.996;2022-12-29T12:14:23;6.03;;;1.33;;
39344;SDS011;25061;51.954;6.996;2022-12-29T12:17:02;6.90;;;1.88;;
39344;SDS011;25061;51.954;6.996;2022-12-29T12:19:38;7.70;;;1.50;;
39344;SDS011;25061;51.954;6.996;2022-12-29T12:22:21;9.82;;;1.90;;
39344;SDS011;25061;51.954;6.996;2022-12-29T12:25:03;10.10;;;1.85;;
39344;SDS011;25061;51.954;6.996;2022-12-29T12:27:46;9.48;;;1.88;;
39344;SDS011;25061;51.954;6.996;2022-12-29T12:30:22;3.95;;;1.00;;
39344;SDS011;25061;51.954;6.996;2022-12-29T12:32:54;9.13;;;1.70;;
39344;SDS011;25061;51.954;6.996;2022-12-29T12:54:12;6.00;;;1.30;;
39344;SDS011;25061;51.954;6.996;2022-12-29T12:56:56;5.07;;;0.93;;
39344;SDS011;25061;51.954;6.996;2022-12-29T13:10:19;5.88;;;1.10;;
39344;SDS011;25061;51.954;6.996;2022-12-29T13:15:41;10.95;;;1.33;;
39344;SDS011;25061;51.954;6.996;2022-12-29T13:26:20;8.20;;;1.30;;
39344;SDS011;25061;51.954;6.996;2022-12-29T13:28:59;7.70;;;1.10;;
39344;SDS011;25061;51.954;6.996;2022-12-29T13:31:56;10.52;;;1.60;;
39344;SDS011;25061;51.954;6.996;2022-12-29T13:34:46;7.85;;;1.23;;
39344;SDS011;25061;51.954;6.996;2022-12-29T13:37:14;8.43;;;1.75;;
39344;SDS011;25061;51.954;6.996;2022-12-29T13:39:45;6.55;;;1.20;;
39344;SDS011;25061;51.954;6.996;2022-12-29T13:44:59;8.88;;;1.20;;
39344;SDS011;25061;51.954;6.996;2022-12-29T13:50:27;12.82;;;1.60;;
39344;SDS011;25061;51.954;6.996;2022-12-29T13:55:32;8.63;;;1.23;;
39344;SDS011;25061;51.954;6.996;2022-12-29T14:00:43;10.65;;;2.40;;
39344;SDS011;25061;51.954;6.996;2022-12-29T14:08:45;7.43;;;1.33;;
39344;SDS011;25061;51.954;6.996;2022-12-29T14:11:14;8.27;;;1.58;;
39344;SDS011;25061;51.954;6.996;2022-12-29T14:13:42;12.25;;;3.60;;
39344;SDS011;25061;51.954;6.996;2022-12-29T14:16:21;12.38;;;3.00;;
39344;SDS011;25061;51.954;6.996;2022-12-29T14:18:49;9.38;;;2.13;;
39344;SDS011;25061;51.954;6.996;2022-12-29T14:23:44;7.78;;;1.42;;
39344;SDS011;25061;51.954;6.996;2022-12-29T14:26:13;6.20;;;1.50;;
39344;SDS011;25061;51.954;6.996;2022-12-29T14:28:54;6.25;;;1.95;;
39344;SDS011;25061;51.954;6.996;2022-12-29T14:36:57;10.38;;;1.77;;
39344;SDS011;25061;51.954;6.996;2022-12-29T14:39:40;11.63;;;2.80;;
39344;SDS011;25061;51.954;6.996;2022-12-29T14:44:48;10.68;;;1.83;;
39344;SDS011;25061;51.954;6.996;2022-12-29T14:47:26;7.75;;;1.05;;
39344;SDS011;25061;51.954;6.996;2022-12-29T14:49:57;11.55;;;1.50;;
39344;SDS011;25061;51.954;6.996;2022-12-29T14:52:50;6.22;;;1.02;;
39344;SDS011;25061;51.954;6.996;2022-12-29T14:59:12;6.90;;;1.30;;
39344;SDS011;25061;51.954;6.996;2022-12-29T15:03:46;5.97;;;1.33;;
39344;SDS011;25061;51.954;6.996;2022-12-29T15:06:17;6.75;;;1.60;;
39344;SDS011;25061;51.954;6.996;2022-12-29T15:09:29;9.13;;;1.75;;
39344;SDS011;25061;51.954;6.996;2022-12-29T15:11:44;3.88;;;0.90;;
39344;SDS011;25061;51.954;6.996;2022-12-29T15:17:35;3.92;;;0.70;;
39344;SDS011;25061;51.954;6.996;2022-12-29T15:22:56;8.27;;;1.48;;
39344;SDS011;25061;51.954;6.996;2022-12-29T15:25:25;8.52;;;1.70;;
39344;SDS011;25061;51.954;6.996;2022-12-29T15:27:52;10.32;;;2.78;;
39344;SDS011;25061;51.954;6.996;2022-12-29T15:30:26;8.25;;;1.30;;
39344;SDS011;25061;51.954;6.996;2022-12-29T15:32:52;7.70;;;2.03;;
39344;SDS011;25061;51.954;6.996;2022-12-29T15:40:51;6.38;;;1.50;;
39344;SDS011;25061;51.954;6.996;2022-12-29T15:46:34;9.30;;;2.30;;
39344;SDS011;25061;51.954;6.996;2022-12-29T15:49:03;7.85;;;1.33;;
39344;SDS011;25061;51.954;6.996;2022-12-29T15:51:33;5.82;;;1.42;;
39344;SDS011;25061;51.954;6.996;2022-12-29T15:54:02;4.15;;;1.00;;
39344;SDS011;25061;51.954;6.996;2022-12-29T15:56:28;5.28;;;1.00;;
39344;SDS011;25061;51.954;6.996;2022-12-29T15:58:55;10.73;;;2.10;;
39344;SDS011;25061;51.954;6.996;2022-12-29T16:01:29;11.20;;;2.83;;
39344;SDS011;25061;51.954;6.996;2022-12-29T16:04:17;20.33;;;6.60;;
39344;SDS011;25061;51.954;6.996;2022-12-29T16:06:57;12.70;;;4.18;;
39344;SDS011;25061;51.954;6.996;2022-12-29T16:12:21;11.02;;;2.97;;
39344;SDS011;25061;51.954;6.996;2022-12-29T16:14:48;6.93;;;1.90;;
39344;SDS011;25061;51.954;6.996;2022-12-29T16:17:23;9.13;;;2.00;;
39344;SDS011;25061;51.954;6.996;2022-12-29T16:22:41;9.27;;;2.47;;
39344;SDS011;25061;51.954;6.996;2022-12-29T16:25:25;9.35;;;1.98;;
39344;SDS011;25061;51.954;6.996;2022-12-29T16:27:56;11.50;;;3.22;;
39344;SDS011;25061;51.954;6.996;2022-12-29T16:30:24;8.43;;;2.33;;
39344;SDS011;25061;51.954;6.996;2022-12-29T16:32:52;8.95;;;2.90;;
39344;SDS011;25061;51.954;6.996;2022-12-29T16:35:22;6.93;;;1.40;;
39344;SDS011;25061;51.954;6.996;2022-12-29T16:38:13;7.22;;;1.45;;
39344;SDS011;25061;51.954;6.996;2022-12-29T16:48:27;6.68;;;1.48;;
39344;SDS011;25061;51.954;6.996;2022-12-29T16:51:05;5.60;;;1.13;;
39344;SDS011;25061;51.954;6.996;2022-12-29T16:53:39;5.45;;;1.10;;
39344;SDS011;25061;51.954;6.996;2022-12-29T16:56:13;10.20;;;1.05;;
39344;SDS011;25061;51.954;6.996;2022-12-29T16:58:41;6.13;;;0.90;;
39344;SDS011;25061;51.954;6.996;2022-12-29T17:01:12;6.68;;;1.40;;
39344;SDS011;25061;51.954;6.996;2022-12-29T17:03:40;5.45;;;1.00;;
39344;SDS011;25061;51.954;6.996;2022-12-29T17:06:17;6.70;;;1.63;;
39344;SDS011;25061;51.954;6.996;2022-12-29T17:08:45;6.30;;;1.38;;
39344;SDS011;25061;51.954;6.996;2022-12-29T17:16:49;5.35;;;0.90;;
39344;SDS011;25061;51.954;6.996;2022-12-29T17:19:18;4.78;;;0.93;;
39344;SDS011;25061;51.954;6.996;2022-12-29T17:21:47;5.32;;;1.38;;
39344;SDS011;25061;51.954;6.996;2022-12-29T17:24:25;6.47;;;1.20;;
39344;SDS011;25061;51.954;6.996;2022-12-29T17:26:57;6.35;;;1.10;;
39344;SDS011;25061;51.954;6.996;2022-12-29T17:29:35;6.07;;;1.50;;
39344;SDS011;25061;51.954;6.996;2022-12-29T17:32:09;3.40;;;0.80;;
39344;SDS011;25061;51.954;6.996;2022-12-29T17:34:58;5.18;;;1.58;;
39344;SDS011;25061;51.954;6.996;2022-12-29T17:39:54;4.80;;;1.30;;
39344;SDS011;25061;51.954;6.996;2022-12-29T17:42:19;5.25;;;1.00;;
39344;SDS011;25061;51.954;6.996;2022-12-29T17:44:45;4.70;;;1.10;;
39344;SDS011;25061;51.954;6.996;2022-12-29T17:47:11;6.55;;;1.33;;
39344;SDS011;25061;51.954;6.996;2022-12-29T17:49:36;6.90;;;1.33;;
39344;SDS011;25061;51.954;6.996;2022-12-29T17:52:03;3.10;;;0.90;;
39344;SDS011;25061;51.954;6.996;2022-12-29T17:54:29;5.20;;;1.05;;
39344;SDS011;25061;51.954;6.996;2022-12-29T17:56:55;5.32;;;1.02;;
39344;SDS011;25061;51.954;6.996;2022-12-29T17:59:21;5.07;;;0.98;;
39344;SDS011;25061;51.954;6.996;2022-12-29T18:01:47;6.63;;;1.00;;